Time;durP1;ratioP1;P1;durP2;ratioP2;P2;SDS_P1;SDS_P2;PMS_P1;PMS_P2;Temp;Humidity;BMP_temperature;BMP_pressure;BME280_temperature;BME280_humidity;BME280_pressure;Samples;Min_cycle;Max_cycle;Signal;HPM_P1;HPM_P2
2023/02/15 00:01:26;;;;;;;;;;;17.60;59.90;;;;;;5073580;28;1279;-72
2023/02/15 00:03:51;;;;;;;;;;;17.60;59.90;;;;;;5040907;28;844;-72
2023/02/15 00:06:17;;;;;;;;;;;17.60;59.90;;;;;;5038323;28;883;-72
2023/02/15 00:08:42;;;;;;;;;;;17.60;59.90;;;;;;5040558;28;867;-72
2023/02/15 00:11:08;;;;;;;;;;;17.60;59.80;;;;;;5041046;28;1274;-72
2023/02/15 00:13:35;;;;;;;;;;;17.60;59.80;;;;;;5073039;28;1914;-72
2023/02/15 00:16:04;;;;;;;;;;;17.60;59.90;;;;;;5042521;28;860;-72
2023/02/15 00:18:30;;;;;;;;;;;17.60;59.90;;;;;;5073558;28;866;-72
2023/02/15 00:20:55;;;;;;;;;;;17.60;59.90;;;;;;5072514;28;1334;-72
2023/02/15 00:23:21;;;;;;;;;;;17.60;59.90;;;;;;5039311;28;883;-72
2023/02/15 00:25:46;;;;;;;;;;;17.60;59.90;;;;;;5073095;28;923;-72
2023/02/15 00:28:11;;;;;;;;;;;17.60;59.90;;;;;;5072342;28;954;-72
2023/02/15 00:30:37;;;;;;;;;;;17.60;59.90;;;;;;5043007;28;1289;-72
2023/02/15 00:33:02;;;;;;;;;;;17.60;59.90;;;;;;5038680;28;1953;-72
2023/02/15 00:35:28;;;;;;;;;;;17.60;59.90;;;;;;5074814;28;1022;-72
2023/02/15 00:37:53;;;;;;;;;;;17.60;59.90;;;;;;5073273;28;1083;-72
2023/02/15 00:40:19;;;;;;;;;;;17.60;59.90;;;;;;5040798;28;1263;-72
2023/02/15 00:42:44;;;;;;;;;;;17.60;60.00;;;;;;5040557;28;888;-72
2023/02/15 00:45:10;;;;;;;;;;;17.60;59.90;;;;;;5038649;28;1232;-72
2023/02/15 00:47:35;;;;;;;;;;;17.60;59.90;;;;;;5039023;28;880;-72
2023/02/15 00:50:02;;;;;;;;;;;17.60;59.90;;;;;;5041579;28;1292;-72
2023/02/15 00:52:28;;;;;;;;;;;17.60;60.00;;;;;;5041495;28;1963;-73
2023/02/15 00:54:53;;;;;;;;;;;17.60;60.00;;;;;;5038815;28;954;-73
2023/02/15 00:57:19;;;;;;;;;;;17.60;60.00;;;;;;5072003;28;808;-71
2023/02/15 00:59:44;;;;;;;;;;;17.60;60.00;;;;;;5040874;28;1251;-72
2023/02/15 01:02:10;;;;;;;;;;;17.60;60.00;;;;;;5042802;28;1026;-72
2023/02/15 01:04:35;;;;;;;;;;;17.60;60.00;;;;;;5037640;28;911;-72
2023/02/15 01:07:02;;;;;;;;;;;17.60;60.00;;;;;;5041975;28;1295;-72
2023/02/15 01:09:28;;;;;;;;;;;17.60;60.00;;;;;;5041541;28;927;-72
2023/02/15 01:11:53;;;;;;;;;;;17.60;60.00;;;;;;5036959;28;1220;-73
2023/02/15 01:14:19;;;;;;;;;;;17.60;60.00;;;;;;5038950;28;1977;-72
2023/02/15 01:16:44;;;;;;;;;;;17.60;60.00;;;;;;5072621;28;955;-72
2023/02/15 01:19:10;;;;;;;;;;;17.60;60.00;;;;;;5039942;28;934;-73
2023/02/15 01:21:35;;;;;;;;;;;17.60;60.10;;;;;;5040437;28;1231;-72
2023/02/15 01:24:01;;;;;;;;;;;17.60;60.10;;;;;;5073450;28;791;-72
2023/02/15 01:26:26;;;;;;;;;;;17.60;60.10;;;;;;5043472;28;1150;-72
2023/02/15 01:28:52;;;;;;;;;;;17.60;60.10;;;;;;5045588;28;895;-72
2023/02/15 01:31:18;;;;;;;;;;;17.60;60.10;;;;;;5039721;28;1358;-72
2023/02/15 01:33:44;;;;;;;;;;;17.60;60.10;;;;;;5038046;28;1983;-72
2023/02/15 01:36:09;;;;;;;;;;;17.60;60.10;;;;;;5038558;28;828;-72
2023/02/15 01:38:35;;;;;;;;;;;17.60;60.10;;;;;;5039784;28;943;-72
2023/02/15 01:43:45;;;;;;;;;;;17.60;60.10;;;;;;5038570;28;1312;-72
2023/02/15 01:46:11;;;;;;;;;;;17.60;60.20;;;;;;5069251;28;907;-72
2023/02/15 01:48:37;;;;;;;;;;;17.60;60.20;;;;;;5071818;28;942;-72
2023/02/15 01:51:02;;;;;;;;;;;17.60;60.20;;;;;;5072166;28;1278;-72
2023/02/15 01:53:39;;;;;;;;;;;17.50;60.10;;;;;;5073493;28;1910;-72
2023/02/15 01:56:05;;;;;;;;;;;17.60;60.20;;;;;;5070525;28;953;-72
2023/02/15 01:58:31;;;;;;;;;;;17.50;60.10;;;;;;5039456;28;1235;-72
2023/02/15 02:00:56;;;;;;;;;;;17.50;60.10;;;;;;5073041;28;1301;-72
2023/02/15 02:03:24;;;;;;;;;;;17.50;60.20;;;;;;5071693;28;999;-72
2023/02/15 02:05:49;;;;;;;;;;;17.50;60.20;;;;;;5073430;28;949;-72
2023/02/15 02:08:15;;;;;;;;;;;17.50;60.20;;;;;;5035307;28;773;-72
2023/02/15 02:10:40;;;;;;;;;;;17.50;60.20;;;;;;5066487;28;1217;-72
2023/02/15 02:13:05;;;;;;;;;;;17.50;60.20;;;;;;5037173;28;1906;-72
2023/02/15 02:15:37;;;;;;;;;;;17.50;60.20;;;;;;5071700;28;819;-72
2023/02/15 02:18:02;;;;;;;;;;;17.50;60.20;;;;;;5037821;28;1003;-72
2023/02/15 02:20:37;;;;;;;;;;;17.50;60.20;;;;;;5073139;28;1329;-72
2023/02/15 02:23:21;;;;;;;;;;;17.50;60.20;;;;;;5039523;28;883;-72
2023/02/15 02:26:05;;;;;;;;;;;17.50;60.20;;;;;;5039761;28;906;-72
2023/02/15 02:28:49;;;;;;;;;;;17.50;60.20;;;;;;5038234;28;836;-72
2023/02/15 02:31:33;;;;;;;;;;;17.50;60.30;;;;;;5037736;28;1285;-72
2023/02/15 02:34:04;;;;;;;;;;;17.50;60.30;;;;;;5036045;28;1914;-72
2023/02/15 02:36:33;;;;;;;;;;;17.50;60.30;;;;;;5036872;28;821;-72
2023/02/15 02:39:02;;;;;;;;;;;17.50;60.30;;;;;;5038116;28;963;-72
2023/02/15 02:41:46;;;;;;;;;;;17.50;60.30;;;;;;5069573;28;1376;-72
2023/02/15 02:44:13;;;;;;;;;;;17.50;60.30;;;;;;5037083;28;943;-72
2023/02/15 02:46:42;;;;;;;;;;;17.50;60.30;;;;;;5068158;28;957;-72
2023/02/15 02:49:07;;;;;;;;;;;17.50;60.30;;;;;;5042476;28;999;-72
2023/02/15 02:51:33;;;;;;;;;;;17.50;60.30;;;;;;5074467;28;1203;-72
2023/02/15 02:53:59;;;;;;;;;;;17.50;60.30;;;;;;5036842;28;1894;-72
2023/02/15 02:56:28;;;;;;;;;;;17.50;60.30;;;;;;5043735;28;1010;-72
2023/02/15 02:58:55;;;;;;;;;;;17.50;60.40;;;;;;5076297;28;798;-72
2023/02/15 03:01:25;;;;;;;;;;;17.50;60.40;;;;;;5063112;28;1563;-72
2023/02/15 03:03:51;;;;;;;;;;;17.50;60.40;;;;;;5069821;28;1022;-72
2023/02/15 03:06:23;;;;;;;;;;;17.50;60.40;;;;;;5072797;28;946;-72
2023/02/15 03:08:50;;;;;;;;;;;17.50;60.40;;;;;;5070641;28;950;-72
2023/02/15 03:11:16;;;;;;;;;;;17.50;60.40;;;;;;5041154;28;1225;-72
2023/02/15 03:13:41;;;;;;;;;;;17.50;60.40;;;;;;5036582;28;1902;-72
2023/02/15 03:18:57;;;;;;;;;;;17.50;60.40;;;;;;5069100;28;774;-72
2023/02/15 03:21:49;;;;;;;;;;;17.50;60.40;;;;;;5055965;28;1259;-72
2023/02/15 03:24:20;;;;;;;;;;;17.50;60.40;;;;;;5034183;28;1249;-72
2023/02/15 03:26:45;;;;;;;;;;;17.50;60.40;;;;;;5071294;28;950;-72
2023/02/15 03:29:11;;;;;;;;;;;17.50;60.40;;;;;;5036186;28;903;-72
2023/02/15 03:31:38;;;;;;;;;;;17.50;60.40;;;;;;5070500;28;1248;-72
2023/02/15 03:34:04;;;;;;;;;;;17.50;60.40;;;;;;5068421;28;1898;-72
2023/02/15 03:36:36;;;;;;;;;;;17.50;60.40;;;;;;5068523;28;934;-72
2023/02/15 03:39:11;;;;;;;;;;;17.50;60.40;;;;;;5072414;28;955;-72
2023/02/15 03:41:39;;;;;;;;;;;17.50;60.40;;;;;;5072736;28;1232;-72
2023/02/15 03:44:15;;;;;;;;;;;17.50;60.40;;;;;;5072130;28;1274;-72
2023/02/15 03:46:43;;;;;;;;;;;17.50;60.40;;;;;;5073397;28;919;-72
2023/02/15 03:49:14;;;;;;;;;;;17.50;60.40;;;;;;5072304;28;1093;-72
2023/02/15 03:51:40;;;;;;;;;;;17.50;60.40;;;;;;5072565;28;1269;-72
2023/02/15 04:02:38;;;;;;;;;;;17.50;60.40;;;;;;5037958;28;737;-72
2023/02/15 04:05:04;;;;;;;;;;;17.50;60.40;;;;;;5072118;28;800;-72
2023/02/15 04:07:29;;;;;;;;;;;17.50;60.40;;;;;;5039804;28;1022;-72
2023/02/15 04:12:39;;;;;;;;;;;17.50;60.50;;;;;;5040302;28;1906;-72
2023/02/15 04:17:48;;;;;;;;;;;17.50;60.50;;;;;;5068620;28;777;-72
2023/02/15 04:25:42;;;;;;;;;;;17.50;60.50;;;;;;5037904;28;822;-72
2023/02/15 04:28:07;;;;;;;;;;;17.50;60.50;;;;;;5039619;28;872;-73
2023/02/15 04:30:33;;;;;;;;;;;17.50;60.50;;;;;;5069370;28;1281;-72
2023/02/15 04:32:58;;;;;;;;;;;17.50;60.50;;;;;;5043408;28;1965;-72
2023/02/15 04:35:24;;;;;;;;;;;17.50;60.50;;;;;;5041746;28;846;-72
2023/02/15 04:37:49;;;;;;;;;;;17.50;60.60;;;;;;5039740;28;1402;-72
2023/02/15 04:40:15;;;;;;;;;;;17.50;60.60;;;;;;5039335;28;1294;-72
2023/02/15 04:42:40;;;;;;;;;;;17.50;60.60;;;;;;5075276;28;903;-72
2023/02/15 04:45:06;;;;;;;;;;;17.50;60.60;;;;;;5042151;28;1352;-72
2023/02/15 04:47:32;;;;;;;;;;;17.50;60.60;;;;;;5042012;28;891;-72
2023/02/15 04:49:57;;;;;;;;;;;17.50;60.60;;;;;;5039269;28;1263;-72
2023/02/15 04:52:23;;;;;;;;;;;17.40;60.60;;;;;;5041682;28;1894;-72
2023/02/15 04:54:48;;;;;;;;;;;17.50;60.60;;;;;;5039222;28;812;-72
2023/02/15 04:57:13;;;;;;;;;;;17.50;60.60;;;;;;5040343;28;903;-72
2023/02/15 04:59:39;;;;;;;;;;;17.40;60.50;;;;;;5042415;28;1255;-72
2023/02/15 05:02:05;;;;;;;;;;;17.40;60.50;;;;;;5039269;28;860;-72
2023/02/15 05:04:30;;;;;;;;;;;17.50;60.60;;;;;;5072253;28;816;-72
2023/02/15 05:06:55;;;;;;;;;;;17.40;60.50;;;;;;5040727;28;812;-72
2023/02/15 05:09:21;;;;;;;;;;;17.50;60.60;;;;;;5071077;28;942;-72
2023/02/15 05:11:46;;;;;;;;;;;17.50;60.50;;;;;;5042215;28;1315;-72
2023/02/15 05:14:12;;;;;;;;;;;17.50;60.50;;;;;;5036754;28;1910;-72
2023/02/15 05:16:37;;;;;;;;;;;17.50;60.40;;;;;;5041008;28;805;-72
2023/02/15 05:19:03;;;;;;;;;;;17.60;60.40;;;;;;5069228;28;1018;-72
2023/02/15 05:21:28;;;;;;;;;;;17.60;60.30;;;;;;5039353;28;1612;-72
2023/02/15 05:23:54;;;;;;;;;;;17.60;60.10;;;;;;5037747;28;1002;-72
2023/02/15 05:29:04;;;;;;;;;;;17.70;59.90;;;;;;5038333;28;743;-72
2023/02/15 05:31:30;;;;;;;;;;;17.70;59.80;;;;;;5038584;28;1282;-72
2023/02/15 05:33:55;;;;;;;;;;;17.70;59.70;;;;;;5037721;28;1910;-73
2023/02/15 05:36:21;;;;;;;;;;;17.80;59.70;;;;;;5036986;28;892;-72
2023/02/15 05:38:46;;;;;;;;;;;17.80;60.20;;;;;;5070878;28;1462;-72
2023/02/15 05:41:12;;;;;;;;;;;17.80;59.50;;;;;;5040399;28;1511;-71
2023/02/15 05:43:37;;;;;;;;;;;17.80;59.50;;;;;;5037449;28;962;-72
2023/02/15 05:46:03;;;;;;;;;;;17.80;59.40;;;;;;5038434;28;1035;-72
2023/02/15 05:48:28;;;;;;;;;;;17.80;59.40;;;;;;5040234;28;800;-72
2023/02/15 05:50:58;;;;;;;;;;;17.90;59.40;;;;;;5072378;28;1242;-72
2023/02/15 05:53:23;;;;;;;;;;;17.90;59.30;;;;;;5035432;28;1910;-72
2023/02/15 05:55:49;;;;;;;;;;;17.90;59.30;;;;;;5037354;28;999;-72
2023/02/15 05:58:14;;;;;;;;;;;17.90;59.20;;;;;;5043118;28;1280;-71
2023/02/15 06:00:40;;;;;;;;;;;17.90;59.20;;;;;;5040932;28;1338;-71
2023/02/15 06:03:05;;;;;;;;;;;17.90;59.20;;;;;;5042406;28;1321;-71
2023/02/15 06:05:31;;;;;;;;;;;17.90;59.20;;;;;;5038547;28;1340;-70
2023/02/15 06:07:56;;;;;;;;;;;17.90;59.10;;;;;;5040097;28;1367;-70
2023/02/15 06:10:21;;;;;;;;;;;18.00;59.20;;;;;;5038129;28;1873;-70
2023/02/15 06:12:47;;;;;;;;;;;18.00;59.20;;;;;;5037947;28;1987;-69
2023/02/15 06:15:13;;;;;;;;;;;17.90;59.10;;;;;;5043037;28;1356;-71
2023/02/15 06:17:40;;;;;;;;;;;18.00;59.10;;;;;;5072156;28;910;-72
2023/02/15 06:20:06;;;;;;;;;;;17.90;59.10;;;;;;5037964;28;1241;-70
2023/02/15 06:22:32;;;;;;;;;;;18.00;59.10;;;;;;5038882;28;835;-71
2023/02/15 06:24:57;;;;;;;;;;;17.90;59.10;;;;;;5039511;28;833;-70
2023/02/15 06:27:23;;;;;;;;;;;17.90;59.10;;;;;;5039154;28;844;-70
2023/02/15 06:29:48;;;;;;;;;;;17.90;59.10;;;;;;5039280;28;1225;-70
2023/02/15 06:32:14;;;;;;;;;;;17.90;59.10;;;;;;5043606;28;2095;-71
2023/02/15 06:34:39;;;;;;;;;;;17.90;59.10;;;;;;5038061;28;1956;-70
2023/02/15 06:37:05;;;;;;;;;;;17.90;59.10;;;;;;5035759;28;1380;-71
2023/02/15 06:39:30;;;;;;;;;;;17.90;59.20;;;;;;5035771;28;5132;-69
2023/02/15 06:41:56;;;;;;;;;;;17.90;59.20;;;;;;5071088;28;1348;-69
2023/02/15 06:44:21;;;;;;;;;;;17.90;59.20;;;;;;5072652;28;2060;-70
2023/02/15 06:46:46;;;;;;;;;;;17.90;59.20;;;;;;5072082;28;1426;-69
2023/02/15 06:49:12;;;;;;;;;;;17.90;59.20;;;;;;5041579;28;1358;-69
2023/02/15 06:51:37;;;;;;;;;;;17.90;59.30;;;;;;5070907;28;1291;-71
2023/02/15 06:54:03;;;;;;;;;;;17.90;59.30;;;;;;5037493;28;1964;-71
2023/02/15 06:56:29;;;;;;;;;;;17.90;59.30;;;;;;5038767;28;1133;-70
2023/02/15 06:58:54;;;;;;;;;;;17.90;59.30;;;;;;5067245;28;1120;-71
2023/02/15 07:01:20;;;;;;;;;;;17.90;59.40;;;;;;5038487;28;1259;-72
2023/02/15 07:03:45;;;;;;;;;;;17.80;59.30;;;;;;5036744;28;799;-71
2023/02/15 07:06:11;;;;;;;;;;;17.90;59.40;;;;;;5038352;28;904;-70
2023/02/15 07:08:37;;;;;;;;;;;17.80;59.40;;;;;;5054625;28;1602;-70
2023/02/15 07:13:46;;;;;;;;;;;17.80;59.40;;;;;;5068650;28;1913;-71
2023/02/15 07:16:12;;;;;;;;;;;17.80;59.40;;;;;;5044336;28;855;-71
2023/02/15 07:18:38;;;;;;;;;;;17.80;59.40;;;;;;5043297;28;939;-71
2023/02/15 07:21:03;;;;;;;;;;;17.80;59.40;;;;;;5073000;28;1227;-71
2023/02/15 07:23:29;;;;;;;;;;;17.80;59.50;;;;;;5071964;28;835;-71
2023/02/15 07:25:57;;;;;;;;;;;17.80;59.50;;;;;;5042248;28;1592;-71
2023/02/15 07:28:23;;;;;;;;;;;17.80;59.50;;;;;;5044938;28;1086;-70
2023/02/15 07:30:48;;;;;;;;;;;17.80;59.50;;;;;;5041518;28;1334;-70
2023/02/15 07:33:23;;;;;;;;;;;17.80;59.60;;;;;;5043849;28;1887;-70
2023/02/15 07:35:49;;;;;;;;;;;17.80;59.60;;;;;;5039061;28;970;-69
2023/02/15 07:38:14;;;;;;;;;;;17.80;59.60;;;;;;5042583;28;1477;-69
2023/02/15 07:40:40;;;;;;;;;;;17.80;59.60;;;;;;5043805;28;1350;-71
2023/02/15 07:43:05;;;;;;;;;;;17.80;59.70;;;;;;5040617;28;1153;-71
2023/02/15 07:45:31;;;;;;;;;;;17.80;59.60;;;;;;5039971;28;1075;-70
2023/02/15 07:47:56;;;;;;;;;;;17.80;59.70;;;;;;5073064;28;878;-69
2023/02/15 07:50:22;;;;;;;;;;;17.70;59.60;;;;;;5043450;28;1271;-70
2023/02/15 07:52:47;;;;;;;;;;;17.70;59.70;;;;;;5045724;28;1951;-68
2023/02/15 07:55:13;;;;;;;;;;;17.70;59.70;;;;;;5045075;28;948;-69
2023/02/15 07:57:43;;;;;;;;;;;17.70;59.70;;;;;;5042753;28;863;-69
2023/02/15 08:00:09;;;;;;;;;;;17.70;59.70;;;;;;5042069;28;1355;-69
2023/02/15 08:02:36;;;;;;;;;;;17.70;59.80;;;;;;5039472;28;1069;-68
2023/02/15 08:05:02;;;;;;;;;;;17.70;59.70;;;;;;5072724;28;823;-69
2023/02/15 08:07:27;;;;;;;;;;;17.70;59.80;;;;;;5038265;28;1173;-68
2023/02/15 08:09:53;;;;;;;;;;;17.70;59.80;;;;;;5038798;28;1299;-69
2023/02/15 08:12:19;;;;;;;;;;;17.70;59.80;;;;;;5074531;28;800;-68
2023/02/15 08:14:44;;;;;;;;;;;17.70;59.80;;;;;;5044969;28;1961;-69
2023/02/15 08:17:10;;;;;;;;;;;17.70;59.80;;;;;;5041495;28;1453;-69
2023/02/15 08:19:35;;;;;;;;;;;17.60;59.80;;;;;;5044243;28;1359;-68
2023/02/15 08:22:01;;;;;;;;;;;17.70;59.90;;;;;;5075149;28;827;-69
2023/02/15 08:24:28;;;;;;;;;;;17.70;59.90;;;;;;5073419;28;1061;-69
2023/02/15 08:26:53;;;;;;;;;;;17.70;59.90;;;;;;5040854;28;951;-69
2023/02/15 08:29:21;;;;;;;;;;;17.70;59.90;;;;;;5073157;28;2137;-69
2023/02/15 08:31:46;;;;;;;;;;;17.70;59.90;;;;;;5070849;28;1260;-68
2023/02/15 08:34:13;;;;;;;;;;;17.70;59.90;;;;;;5040779;28;1902;-69
2023/02/15 08:36:39;;;;;;;;;;;17.70;60.00;;;;;;5039812;28;2040;-69
2023/02/15 08:39:04;;;;;;;;;;;17.60;59.90;;;;;;5038501;28;1528;-68
2023/02/15 08:41:31;;;;;;;;;;;17.60;59.90;;;;;;5039345;28;1473;-68
2023/02/15 08:43:57;;;;;;;;;;;17.60;60.00;;;;;;5073798;28;1390;-69
2023/02/15 08:46:23;;;;;;;;;;;17.60;60.00;;;;;;5038296;28;1287;-69
2023/02/15 08:48:49;;;;;;;;;;;17.60;60.00;;;;;;5040059;28;1270;-69
2023/02/15 08:51:15;;;;;;;;;;;17.60;60.00;;;;;;5038381;28;1272;-69
2023/02/15 08:53:41;;;;;;;;;;;17.60;60.00;;;;;;5041376;28;1906;-68
2023/02/15 08:56:07;;;;;;;;;;;17.60;60.00;;;;;;5071356;28;871;-68
2023/02/15 08:58:33;;;;;;;;;;;17.60;60.00;;;;;;5071325;28;936;-69
2023/02/15 09:00:58;;;;;;;;;;;17.60;60.00;;;;;;5041103;28;1254;-68
2023/02/15 09:03:24;;;;;;;;;;;17.60;59.90;;;;;;5038247;28;1292;-69
2023/02/15 09:05:49;;;;;;;;;;;17.70;59.90;;;;;;5040673;28;813;-68
2023/02/15 09:08:15;;;;;;;;;;;17.70;59.90;;;;;;5038809;28;867;-70
2023/02/15 09:10:40;;;;;;;;;;;17.70;59.90;;;;;;5039206;28;1269;-69
2023/02/15 09:13:06;;;;;;;;;;;17.70;59.80;;;;;;5070583;28;1961;-70
2023/02/15 09:15:31;;;;;;;;;;;17.70;59.80;;;;;;5039523;28;887;-68
2023/02/15 09:17:58;;;;;;;;;;;17.70;59.80;;;;;;5039024;28;872;-68
2023/02/15 09:20:24;;;;;;;;;;;17.70;59.70;;;;;;5073208;28;1354;-68
2023/02/15 09:22:51;;;;;;;;;;;17.70;59.70;;;;;;5035533;28;2065;-68
2023/02/15 09:25:16;;;;;;;;;;;17.70;59.60;;;;;;5045825;28;2215;-68
2023/02/15 09:27:43;;;;;;;;;;;17.80;59.70;;;;;;5036522;28;1002;-68
2023/02/15 09:30:08;;;;;;;;;;;17.80;59.60;;;;;;5043222;28;1390;-69
2023/02/15 09:32:34;;;;;;;;;;;17.80;59.60;;;;;;5039120;28;1990;-69
2023/02/15 09:34:59;;;;;;;;;;;17.80;59.60;;;;;;5036914;28;1369;-69
2023/02/15 09:37:25;;;;;;;;;;;17.80;59.60;;;;;;5041863;28;1562;-68
2023/02/15 09:39:50;;;;;;;;;;;17.80;59.60;;;;;;5039981;28;1363;-69
2023/02/15 09:42:22;;;;;;;;;;;17.80;59.60;;;;;;5041593;28;845;-69
2023/02/15 09:44:47;;;;;;;;;;;17.80;59.50;;;;;;5037889;28;934;-68
2023/02/15 09:47:16;;;;;;;;;;;17.80;59.50;;;;;;5038589;28;932;-68
2023/02/15 09:49:44;;;;;;;;;;;17.80;59.50;;;;;;5039910;28;1369;-68
2023/02/15 09:52:28;;;;;;;;;;;17.80;59.50;;;;;;5040414;28;982;-68
2023/02/15 09:54:53;;;;;;;;;;;17.80;59.50;;;;;;5038883;28;1890;-69
2023/02/15 09:57:29;;;;;;;;;;;17.80;59.50;;;;;;5039267;28;879;-69
2023/02/15 10:00:00;;;;;;;;;;;17.80;59.50;;;;;;5069176;28;1363;-70
2023/02/15 10:02:45;;;;;;;;;;;17.80;59.50;;;;;;5036175;28;1081;-69
2023/02/15 10:05:42;;;;;;;;;;;17.80;59.40;;;;;;5039102;28;900;-68
2023/02/15 10:08:23;;;;;;;;;;;17.80;59.40;;;;;;5030509;28;1159;-69
2023/02/15 10:10:57;;;;;;;;;;;17.80;59.40;;;;;;5040057;28;1273;-69
2023/02/15 10:13:37;;;;;;;;;;;17.90;59.50;;;;;;5068374;28;1906;-69
2023/02/15 10:16:03;;;;;;;;;;;17.90;59.50;;;;;;5071663;28;986;-69
2023/02/15 10:18:35;;;;;;;;;;;17.90;59.40;;;;;;5039531;28;861;-69
2023/02/15 10:21:05;;;;;;;;;;;17.90;59.40;;;;;;5071114;28;1260;-69
2023/02/15 10:23:50;;;;;;;;;;;17.80;59.40;;;;;;5070792;28;892;-69
2023/02/15 10:26:19;;;;;;;;;;;17.90;59.40;;;;;;5038866;28;853;-69
2023/02/15 10:28:46;;;;;;;;;;;17.90;59.40;;;;;;5068417;28;875;-69
2023/02/15 10:31:12;;;;;;;;;;;17.90;59.40;;;;;;5069855;28;1246;-69
2023/02/15 10:33:41;;;;;;;;;;;17.90;59.40;;;;;;5037107;28;1906;-69
2023/02/15 10:36:26;;;;;;;;;;;17.90;59.30;;;;;;5069131;28;859;-69
2023/02/15 10:38:51;;;;;;;;;;;17.90;59.30;;;;;;5036481;28;1130;-69
2023/02/15 10:41:29;;;;;;;;;;;17.90;59.30;;;;;;5036521;28;1264;-70
2023/02/15 10:43:58;;;;;;;;;;;17.90;59.30;;;;;;5056415;28;2080;-69
2023/02/15 10:46:33;;;;;;;;;;;17.90;59.30;;;;;;5038543;28;860;-69
2023/02/15 10:49:25;;;;;;;;;;;17.90;59.30;;;;;;5055331;28;1611;-69
2023/02/15 10:51:56;;;;;;;;;;;17.90;59.30;;;;;;5041631;28;1418;-69
2023/02/15 10:54:42;;;;;;;;;;;17.90;59.40;;;;;;5043082;28;1980;-68
2023/02/15 10:57:07;;;;;;;;;;;17.90;59.40;;;;;;5042546;28;1773;-71
2023/02/15 10:59:42;;;;;;;;;;;17.90;59.30;;;;;;5047749;28;1496;-70
2023/02/15 11:02:27;;;;;;;;;;;17.90;59.40;;;;;;5043792;28;1509;-70
2023/02/15 11:04:58;;;;;;;;;;;17.90;59.40;;;;;;5075777;28;1452;-68
2023/02/15 11:07:25;;;;;;;;;;;17.90;59.40;;;;;;5043178;28;1334;-69
2023/02/15 11:09:56;;;;;;;;;;;17.90;59.40;;;;;;5042013;28;1334;-69
2023/02/15 11:12:23;;;;;;;;;;;17.90;59.40;;;;;;5076413;28;1910;-69
2023/02/15 11:15:00;;;;;;;;;;;17.90;59.40;;;;;;5071565;28;1957;-69
2023/02/15 11:17:28;;;;;;;;;;;17.90;59.30;;;;;;5050011;28;1226;-69
2023/02/15 11:20:04;;;;;;;;;;;17.90;59.30;;;;;;5076880;28;1923;-70
2023/02/15 11:22:30;;;;;;;;;;;17.90;59.30;;;;;;5043736;28;1742;-73
2023/02/15 11:24:57;;;;;;;;;;;17.90;59.30;;;;;;5059094;28;1424;-71
2023/02/15 11:27:24;;;;;;;;;;;17.90;59.30;;;;;;5075803;28;824;-71
2023/02/15 11:30:09;;;;;;;;;;;17.90;59.30;;;;;;5074341;28;1265;-70
2023/02/15 11:32:35;;;;;;;;;;;17.90;59.40;;;;;;5042427;28;1954;-71
2023/02/15 11:35:06;;;;;;;;;;;17.90;59.30;;;;;;5042350;28;2095;-70
2023/02/15 11:37:37;;;;;;;;;;;17.90;59.30;;;;;;5073528;28;1416;-71
2023/02/15 11:40:03;;;;;;;;;;;17.90;59.50;;;;;;5071050;28;1389;-71
2023/02/15 11:42:29;;;;;;;;;;;17.90;59.30;;;;;;5076549;28;1202;-70
2023/02/15 11:45:04;;;;;;;;;;;17.90;59.30;;;;;;5070445;28;1680;-72
2023/02/15 11:47:29;;;;;;;;;;;17.90;59.30;;;;;;5042271;28;1002;-69
2023/02/15 11:49:55;;;;;;;;;;;17.90;59.20;;;;;;5072942;28;1351;-70
2023/02/15 11:52:20;;;;;;;;;;;17.90;59.20;;;;;;5072104;28;939;-71
2023/02/15 11:54:46;;;;;;;;;;;17.90;59.20;;;;;;5072060;28;1897;-71
2023/02/15 11:57:23;;;;;;;;;;;17.90;59.30;;;;;;5076522;28;823;-72
2023/02/15 11:59:56;;;;;;;;;;;17.90;59.30;;;;;;5068840;28;1343;-72
2023/02/15 12:02:22;;;;;;;;;;;17.90;59.20;;;;;;5065908;28;864;-73
2023/02/15 12:04:48;;;;;;;;;;;17.90;59.30;;;;;;5073196;28;759;-72
2023/02/15 12:07:22;;;;;;;;;;;18.00;59.30;;;;;;5074091;28;1308;-71
2023/02/15 12:10:11;;;;;;;;;;;17.90;59.20;;;;;;5070986;28;1282;-71
2023/02/15 12:12:37;;;;;;;;;;;17.90;59.30;;;;;;5040218;28;1910;-71
2023/02/15 12:15:03;;;;;;;;;;;17.90;59.20;;;;;;5038919;28;1602;-71
2023/02/15 12:17:29;;;;;;;;;;;17.90;59.30;;;;;;5072058;28;808;-71
2023/02/15 12:19:56;;;;;;;;;;;17.90;59.30;;;;;;5073281;28;1270;-70
2023/02/15 12:22:26;;;;;;;;;;;17.90;59.30;;;;;;5074584;28;824;-71
2023/02/15 12:24:52;;;;;;;;;;;17.90;59.30;;;;;;5069539;28;1196;-72
2023/02/15 12:27:19;;;;;;;;;;;17.90;59.40;;;;;;5069073;28;1284;-72
2023/02/15 12:29:49;;;;;;;;;;;17.90;59.30;;;;;;5038577;28;1377;-71
2023/02/15 12:32:18;;;;;;;;;;;17.90;59.40;;;;;;5038936;28;823;-70
2023/02/15 12:34:46;;;;;;;;;;;17.90;59.40;;;;;;5072553;28;1874;-72
2023/02/15 12:37:22;;;;;;;;;;;17.90;59.40;;;;;;5038252;28;1521;-71
2023/02/15 12:40:11;;;;;;;;;;;17.90;59.40;;;;;;5073387;28;1377;-71
2023/02/15 12:42:42;;;;;;;;;;;17.90;59.40;;;;;;5023638;28;1146;-71
2023/02/15 12:45:21;;;;;;;;;;;17.90;59.50;;;;;;5041037;28;1263;-71
2023/02/15 12:47:47;;;;;;;;;;;17.90;59.50;;;;;;5058731;28;1288;-71
2023/02/15 12:50:16;;;;;;;;;;;17.90;59.50;;;;;;5072550;28;1263;-71
2023/02/15 12:52:43;;;;;;;;;;;17.90;59.50;;;;;;5038477;28;1894;-71
2023/02/15 12:55:10;;;;;;;;;;;17.80;59.50;;;;;;5071977;28;902;-71
2023/02/15 12:57:36;;;;;;;;;;;17.80;59.50;;;;;;5071218;28;892;-71
2023/02/15 13:00:02;;;;;;;;;;;17.80;59.50;;;;;;5040422;28;1359;-70
2023/02/15 13:02:40;;;;;;;;;;;17.80;59.60;;;;;;5042571;28;788;-71
2023/02/15 13:05:27;;;;;;;;;;;17.80;60.20;;;;;;5038883;28;1014;-71
2023/02/15 13:08:00;;;;;;;;;;;17.80;59.60;;;;;;5033092;28;1242;-71
2023/02/15 13:10:27;;;;;;;;;;;17.80;59.70;;;;;;5038321;28;1290;-72
2023/02/15 13:12:54;;;;;;;;;;;17.80;59.70;;;;;;5054938;28;1898;-71
2023/02/15 13:15:38;;;;;;;;;;;17.80;59.70;;;;;;5068618;28;812;-71
2023/02/15 13:18:07;;;;;;;;;;;17.80;59.70;;;;;;5066674;28;1128;-71
2023/02/15 13:20:34;;;;;;;;;;;17.80;59.70;;;;;;5071493;28;1490;-71
2023/02/15 13:23:01;;;;;;;;;;;17.70;59.70;;;;;;5070616;28;962;-71
2023/02/15 13:25:28;;;;;;;;;;;17.70;59.70;;;;;;5071785;28;1087;-71
2023/02/15 13:27:58;;;;;;;;;;;17.70;59.70;;;;;;5069954;28;911;-71
2023/02/15 13:30:24;;;;;;;;;;;17.70;59.80;;;;;;5068855;28;1290;-71
2023/02/15 13:32:51;;;;;;;;;;;17.70;59.80;;;;;;5038131;28;1961;-71
2023/02/15 13:35:17;;;;;;;;;;;17.70;59.80;;;;;;5040221;28;1041;-71
2023/02/15 13:37:49;;;;;;;;;;;17.70;59.80;;;;;;5069436;28;1366;-71
2023/02/15 13:40:22;;;;;;;;;;;17.70;59.80;;;;;;5039732;28;1189;-71
2023/02/15 13:43:03;;;;;;;;;;;17.70;59.90;;;;;;5071486;28;934;-71
2023/02/15 13:45:30;;;;;;;;;;;17.70;59.90;;;;;;5071649;28;1270;-71
2023/02/15 13:47:58;;;;;;;;;;;17.70;59.90;;;;;;5038348;28;876;-71
2023/02/15 13:50:28;;;;;;;;;;;17.70;59.90;;;;;;5038154;28;1301;-70
2023/02/15 13:53:06;;;;;;;;;;;17.70;59.90;;;;;;5041264;28;1902;-70
2023/02/15 13:55:40;;;;;;;;;;;17.70;60.00;;;;;;5040916;28;998;-71
2023/02/15 13:58:11;;;;;;;;;;;17.70;60.00;;;;;;5040341;28;1073;-70
2023/02/15 14:00:36;;;;;;;;;;;17.70;60.00;;;;;;5073890;28;1377;-73
2023/02/15 14:03:18;;;;;;;;;;;17.60;60.00;;;;;;5033011;28;947;-73
2023/02/15 14:05:48;;;;;;;;;;;17.60;60.00;;;;;;5069479;28;957;-74
2023/02/15 14:08:24;;;;;;;;;;;17.60;60.10;;;;;;5071919;28;797;-72
2023/02/15 14:10:50;;;;;;;;;;;17.60;60.10;;;;;;5051154;28;1304;-71
2023/02/15 14:13:24;;;;;;;;;;;17.60;60.10;;;;;;5038172;28;2004;-71
2023/02/15 14:15:58;;;;;;;;;;;17.60;60.20;;;;;;5038656;28;991;-71
2023/02/15 14:18:34;;;;;;;;;;;17.60;60.20;;;;;;5037852;28;785;-71
2023/02/15 14:21:16;;;;;;;;;;;17.60;60.20;;;;;;5071912;28;1339;-71
2023/02/15 14:23:45;;;;;;;;;;;17.60;60.20;;;;;;5074193;28;898;-71
2023/02/15 14:26:20;;;;;;;;;;;17.60;60.30;;;;;;5071219;28;1195;-72
2023/02/15 14:28:45;;;;;;;;;;;17.60;60.30;;;;;;5056080;28;1256;-70
2023/02/15 14:31:11;;;;;;;;;;;17.60;60.30;;;;;;5038786;28;1364;-71
2023/02/15 14:33:37;;;;;;;;;;;17.60;60.30;;;;;;5036173;28;1969;-71
2023/02/15 14:36:04;;;;;;;;;;;17.60;60.40;;;;;;5038887;28;1301;-71
2023/02/15 14:38:56;;;;;;;;;;;17.60;60.40;;;;;;5070790;28;1406;-73
2023/02/15 14:41:24;;;;;;;;;;;17.50;60.40;;;;;;5036582;28;1276;-72
2023/02/15 14:43:52;;;;;;;;;;;17.50;60.40;;;;;;5072964;28;948;-73
2023/02/15 14:46:20;;;;;;;;;;;17.50;60.40;;;;;;5036772;28;851;-72
2023/02/15 14:48:46;;;;;;;;;;;17.50;60.40;;;;;;5037006;28;832;-71
2023/02/15 14:51:32;;;;;;;;;;;17.50;60.40;;;;;;5073451;28;1319;-72
2023/02/15 14:53:57;;;;;;;;;;;17.50;60.50;;;;;;5038915;28;1887;-73
2023/02/15 14:56:23;;;;;;;;;;;17.50;60.50;;;;;;5069230;28;1066;-73
2023/02/15 14:58:52;;;;;;;;;;;17.50;60.50;;;;;;5041552;28;1261;-72
2023/02/15 15:01:24;;;;;;;;;;;17.50;60.50;;;;;;5041280;28;1283;-72
2023/02/15 15:03:52;;;;;;;;;;;17.50;60.50;;;;;;5057882;28;1341;-72
2023/02/15 15:06:28;;;;;;;;;;;17.50;60.60;;;;;;5054864;28;1351;-70
2023/02/15 15:08:55;;;;;;;;;;;17.50;60.60;;;;;;5068965;28;1548;-69
2023/02/15 15:11:27;;;;;;;;;;;17.50;60.60;;;;;;5069609;28;1405;-69